Time;durP1;ratioP1;P1;durP2;ratioP2;P2;SDS_P1;SDS_P2;PMS_P1;PMS_P2;Temp;Humidity;BMP_temperature;BMP_pressure;BME280_temperature;BME280_humidity;BME280_pressure;Samples;Min_cycle;Max_cycle;Signal;HPM_P1;HPM_P2
2022/03/18 00:01:02;;;;;;;18.73;6.25;;;2.10;99.90;;;;;;5006538;28;20125;-86
2022/03/18 00:03:28;;;;;;;16.17;5.30;;;2.10;99.90;;;;;;4974998;28;20432;-86
2022/03/18 00:05:57;;;;;;;23.25;5.70;;;1.80;99.90;;;;;;5024803;28;20497;-86
2022/03/18 00:08:28;;;;;;;25.20;5.78;;;2.70;99.90;;;;;;4977704;28;20211;-85
2022/03/18 00:11:03;;;;;;;18.58;5.78;;;2.20;99.90;;;;;;4977967;28;20119;-85
2022/03/18 00:13:41;;;;;;;20.50;5.20;;;2.30;99.90;;;;;;5025915;28;20416;-86
2022/03/18 00:16:25;;;;;;;24.13;5.70;;;3.10;99.90;;;;;;4977797;28;20049;-85
2022/03/18 00:19:00;;;;;;;;;;;2.30;99.90;;;;;;4978646;28;20126;-85
2022/03/18 00:21:30;;;;;;;33.50;7.07;;;2.30;99.90;;;;;;5009715;28;20292;-86
2022/03/18 00:23:56;;;;;;;14.43;6.63;;;2.70;99.90;;;;;;5010432;28;20042;-85
2022/03/18 00:26:25;;;;;;;19.27;7.30;;;2.30;99.90;;;;;;5009059;28;20052;-85
2022/03/18 00:28:50;;;;;;;29.13;7.88;;;2.20;99.90;;;;;;4975846;28;20049;-85
2022/03/18 00:31:37;;;;;;;17.35;6.30;;;3.00;99.90;;;;;;5008719;28;20054;-85
2022/03/18 00:34:03;;;;;;;26.30;6.25;;;2.90;99.90;;;;;;5009718;28;20382;-85
2022/03/18 00:36:37;;;;;;;25.63;7.40;;;2.10;99.90;;;;;;5010069;28;20053;-87
2022/03/18 00:39:09;;;;;;;19.58;8.00;;;2.00;99.90;;;;;;4977927;28;20046;-86
2022/03/18 00:41:41;;;;;;;19.53;8.93;;;2.00;99.90;;;;;;4976561;28;20054;-85
2022/03/18 00:44:19;;;;;;;21.52;9.35;;;3.30;99.90;;;;;;4976979;28;20446;-85
2022/03/18 00:46:55;;;;;;;25.48;9.30;;;2.70;99.90;;;;;;5010279;28;20057;-85
2022/03/18 00:52:37;;;;;;;24.90;8.52;;;2.30;99.90;;;;;;4993265;28;20084;-85
2022/03/18 00:55:12;;;;;;;22.83;9.65;;;2.30;99.90;;;;;;4977379;28;20049;-86
2022/03/18 00:57:58;;;;;;;28.63;9.13;;;2.30;99.90;;;;;;4977194;28;20046;-85
2022/03/18 01:00:32;;;;;;;24.08;9.48;;;3.50;99.90;;;;;;4977577;28;20046;-85
2022/03/18 01:02:58;;;;;;;28.42;11.32;;;3.80;99.90;;;;;;5009843;28;20042;-86
2022/03/18 01:05:24;;;;;;;23.15;8.75;;;2.00;99.90;;;;;;4993419;28;20050;-86
2022/03/18 01:08:02;;;;;;;26.83;9.45;;;2.00;99.90;;;;;;5012070;23;20049;-85
2022/03/18 01:10:29;;;;;;;33.45;10.10;;;2.50;99.90;;;;;;4996200;28;20060;-85
2022/03/18 01:12:55;;;;;;;28.40;9.70;;;3.00;99.90;;;;;;4993698;28;20045;-85
2022/03/18 01:15:20;;;;;;;37.22;10.48;;;2.40;99.90;;;;;;5012543;28;20132;-86
2022/03/18 01:17:49;;;;;;;28.10;10.23;;;2.90;99.90;;;;;;5011545;28;20107;-86
2022/03/18 01:20:27;;;;;;;30.15;9.82;;;2.30;99.90;;;;;;4995191;28;20060;-85
2022/03/18 01:23:06;;;;;;;30.60;9.55;;;2.60;99.90;;;;;;4996235;28;20041;-86
2022/03/18 01:25:37;;;;;;;35.80;10.45;;;3.10;99.90;;;;;;4995813;28;20500;-85
2022/03/18 01:28:04;;;;;;;23.00;8.95;;;2.50;99.90;;;;;;4996206;28;20045;-86
2022/03/18 01:30:37;;;;;;;31.20;9.20;;;2.60;99.90;;;;;;4996036;28;20085;-86
2022/03/18 01:33:14;;;;;;;31.13;9.07;;;2.60;99.90;;;;;;4996028;28;20049;-85
2022/03/18 01:35:49;;;;;;;26.35;9.05;;;2.60;99.90;;;;;;4996128;28;20041;-86
2022/03/18 01:38:21;;;;;;;25.02;8.93;;;2.60;99.90;;;;;;4994931;28;20037;-86
2022/03/18 01:40:56;;;;;;;21.60;8.85;;;2.30;99.90;;;;;;4995819;28;20060;-85
2022/03/18 01:43:37;;;;;;;22.45;8.65;;;3.40;99.90;;;;;;5011279;28;20046;-85
2022/03/18 01:46:07;;;;;;;34.47;9.93;;;2.40;99.90;;;;;;4994731;28;20098;-86
2022/03/18 01:48:36;;;;;;;21.52;8.85;;;2.60;99.90;;;;;;4993693;28;20091;-85
2022/03/18 01:51:17;;;;;;;24.20;10.15;;;2.40;99.90;;;;;;4975855;28;20085;-85
2022/03/18 01:57:14;;;;;;;27.92;9.45;;;3.20;99.90;;;;;;4992312;28;20460;-86
2022/03/18 01:59:39;;;;;;;28.98;9.45;;;2.60;99.90;;;;;;4991882;28;20092;-85
2022/03/18 02:02:09;;;;;;;24.05;8.52;;;3.40;99.90;;;;;;4975873;28;20077;-86
2022/03/18 02:04:47;;;;;;;26.10;9.90;;;2.40;99.90;;;;;;4992887;28;20528;-87
2022/03/18 02:08:07;;;;;;;24.98;9.48;;;3.20;99.90;;;;;;4971167;28;20525;-86
2022/03/18 02:14:02;;;;;;;29.35;10.98;;;2.50;99.90;;;;;;4972410;28;20129;-87
2022/03/18 02:16:30;;;;;;;31.25;9.82;;;1.90;99.90;;;;;;4956106;28;20088;-87
2022/03/18 02:19:10;;;;;;;28.60;9.88;;;2.40;99.90;;;;;;4972965;28;20061;-87
2022/03/18 02:21:40;;;;;;;21.73;9.27;;;2.30;99.90;;;;;;4971808;28;20086;-87
2022/03/18 02:24:09;;;;;;;24.83;9.82;;;2.70;99.90;;;;;;4973183;28;20046;-87
2022/03/18 02:26:47;;;;;;;23.90;9.57;;;2.40;99.90;;;;;;4956597;28;20495;-87
2022/03/18 02:29:19;;;;;;;22.88;10.00;;;3.60;99.90;;;;;;4956036;28;20129;-88
2022/03/18 02:31:58;;;;;;;26.20;10.88;;;2.50;99.90;;;;;;4957194;28;20043;-88
2022/03/18 02:34:35;;;;;;;27.23;11.25;;;3.40;99.90;;;;;;4956029;28;20454;-88
2022/03/18 02:37:13;;;;;;;33.50;11.73;;;3.80;99.90;;;;;;4956918;28;20132;-87
2022/03/18 02:39:55;;;;;;;30.00;10.75;;;2.70;99.90;;;;;;4956573;28;20046;-87
2022/03/18 02:42:26;;;;;;;29.33;10.98;;;2.00;99.90;;;;;;4955232;28;20100;-88
2022/03/18 02:45:08;;;;;;;28.10;11.50;;;2.60;99.90;;;;;;4957058;28;20042;-87
2022/03/18 02:47:47;;;;;;;29.80;11.63;;;2.50;99.90;;;;;;4957230;28;20049;-88
2022/03/18 02:50:23;;;;;;;29.85;10.60;;;3.60;99.90;;;;;;4956922;28;20077;-88
2022/03/18 02:52:49;;;;;;;21.55;11.20;;;3.10;99.90;;;;;;4957049;28;20125;-87
2022/03/18 02:55:21;;;;;;;25.83;10.52;;;2.60;99.90;;;;;;4955375;28;20133;-87
2022/03/18 02:57:53;;;;;;;22.05;10.82;;;2.60;99.90;;;;;;4955828;28;20046;-86
2022/03/18 03:00:25;;;;;;;34.20;11.38;;;2.50;99.90;;;;;;4956812;28;20101;-86
2022/03/18 03:02:54;;;;;;;28.85;11.32;;;2.60;99.90;;;;;;5001665;23;20056;-86
2022/03/18 03:08:29;;;;;;;25.08;9.90;;;2.30;99.90;;;;;;5010425;28;20045;-86
2022/03/18 03:10:58;;;;;;;25.05;9.25;;;2.30;99.90;;;;;;5010027;28;20056;-86
2022/03/18 03:13:27;;;;;;;25.15;10.35;;;2.20;99.90;;;;;;4993368;28;20504;-86
2022/03/18 03:16:05;;;;;;;22.77;9.85;;;2.20;99.90;;;;;;4993458;28;20091;-85
2022/03/18 03:18:40;;;;;;;22.92;9.85;;;2.20;99.90;;;;;;4993954;28;20049;-86
2022/03/18 03:21:05;;;;;;;29.35;9.75;;;2.20;99.90;;;;;;4993919;28;20049;-86
2022/03/18 03:23:31;;;;;;;23.58;10.57;;;2.40;99.90;;;;;;4993770;28;20109;-86
2022/03/18 03:26:09;;;;;;;19.65;9.80;;;2.10;99.90;;;;;;5010484;28;20535;-86
2022/03/18 03:28:42;;;;;;;20.38;9.18;;;2.00;99.90;;;;;;4993712;28;20037;-85
2022/03/18 03:31:08;;;;;;;28.17;10.70;;;2.10;99.90;;;;;;5009514;28;20064;-85
2022/03/18 03:33:33;;;;;;;19.33;8.40;;;2.10;99.90;;;;;;5010137;28;20046;-86
2022/03/18 03:36:08;;;;;;;21.80;9.95;;;2.00;99.90;;;;;;4994370;28;20113;-86
2022/03/18 03:38:49;;;;;;;18.38;9.05;;;2.10;99.90;;;;;;5010031;28;20096;-86
2022/03/18 03:41:29;;;;;;;21.85;10.52;;;2.10;99.90;;;;;;4995260;28;20096;-86
2022/03/18 03:44:01;;;;;;;27.33;9.95;;;2.00;99.90;;;;;;4997634;28;20049;-86
2022/03/18 03:46:36;;;;;;;25.98;9.48;;;2.40;99.90;;;;;;4997840;28;20136;-86
2022/03/18 03:49:18;;;;;;;22.48;9.98;;;2.10;99.90;;;;;;5014367;28;20053;-86
2022/03/18 03:52:04;;;;;;;19.25;9.07;;;2.10;99.90;;;;;;4998636;28;20060;-86
2022/03/18 03:54:49;;;;;;;20.52;9.50;;;1.90;99.90;;;;;;4997813;28;20045;-86
2022/03/18 03:57:27;;;;;;;22.58;8.50;;;2.20;99.90;;;;;;4996637;28;20052;-86
2022/03/18 04:00:03;;;;;;;20.30;9.07;;;2.70;99.90;;;;;;4997855;28;20232;-87
2022/03/18 04:02:33;;;;;;;21.88;8.82;;;2.30;99.90;;;;;;4997062;28;20137;-87
2022/03/18 04:05:01;;;;;;;18.77;8.27;;;2.10;99.90;;;;;;5014369;28;20505;-86
2022/03/18 04:07:42;;;;;;;20.92;9.52;;;2.80;99.90;;;;;;4998273;28;20052;-87
2022/03/18 04:10:11;;;;;;;20.33;8.60;;;2.30;99.90;;;;;;4997517;28;20061;-87
2022/03/18 04:12:46;;;;;;;24.45;10.25;;;2.30;99.90;;;;;;4997043;28;20038;-87
2022/03/18 04:15:23;;;;;;;26.08;9.48;;;3.00;99.90;;;;;;4997610;28;20424;-86
2022/03/18 04:17:55;;;;;;;26.90;10.18;;;2.40;99.90;;;;;;4997829;28;20485;-87
2022/03/18 04:20:32;;;;;;;18.33;9.02;;;2.60;99.90;;;;;;4996903;28;20044;-87
2022/03/18 04:23:07;;;;;;;25.73;8.98;;;3.10;99.90;;;;;;5014311;28;20057;-86
2022/03/18 04:25:42;;;;;;;20.33;9.68;;;2.70;99.90;;;;;;4998029;28;20045;-86
2022/03/18 04:28:18;;;;;;;21.77;8.95;;;2.70;99.90;;;;;;4995672;28;20053;-87
2022/03/18 04:30:47;;;;;;;20.23;9.93;;;3.40;99.90;;;;;;5013901;28;20056;-86
2022/03/18 04:33:12;;;;;;;16.50;9.60;;;2.80;99.90;;;;;;4996508;28;20088;-86
2022/03/18 04:35:44;;;;;;;22.30;9.75;;;2.90;99.90;;;;;;4997567;28;20053;-86
2022/03/18 04:38:24;;;;;;;17.05;8.82;;;3.00;99.90;;;;;;5013447;28;20045;-86
2022/03/18 04:40:59;;;;;;;28.20;9.93;;;3.00;99.90;;;;;;4996264;28;20050;-86
2022/03/18 04:43:25;;;;;;;22.85;9.13;;;3.60;99.90;;;;;;5013106;28;20049;-86
2022/03/18 04:45:54;;;;;;;22.25;9.63;;;3.30;99.90;;;;;;5013995;28;20045;-87
2022/03/18 04:48:35;;;;;;;24.25;9.88;;;3.50;99.90;;;;;;4995886;28;20045;-88
2022/03/18 04:51:39;;;;;;;18.95;10.13;;;3.60;99.90;;;;;;4997167;28;20132;-87
2022/03/18 04:54:12;;;;;;;19.45;9.90;;;3.50;99.90;;;;;;5013889;28;20081;-89
2022/03/18 05:00:05;;;;;;;21.33;9.18;;;3.90;99.90;;;;;;5013711;28;20115;-86
2022/03/18 05:02:31;;;;;;;23.67;10.40;;;4.00;99.90;;;;;;5005073;28;20045;-87
2022/03/18 05:05:10;;;;;;;26.23;10.35;;;4.80;99.90;;;;;;5013407;28;20058;-87
2022/03/18 05:07:47;;;;;;;22.08;9.27;;;3.90;99.90;;;;;;5030204;28;20106;-87
2022/03/18 05:10:19;;;;;;;18.83;8.98;;;4.40;99.90;;;;;;5014475;28;20053;-87
2022/03/18 05:12:56;;;;;;;19.33;9.48;;;4.40;99.90;;;;;;5033083;28;20098;-86
2022/03/18 05:15:34;;;;;;;19.27;9.05;;;3.90;99.90;;;;;;5015786;28;20492;-87
2022/03/18 05:18:00;;;;;;;18.63;9.23;;;4.30;99.90;;;;;;5032146;28;20048;-87
2022/03/18 05:20:38;;;;;;;24.33;9.45;;;3.30;99.90;;;;;;5004530;28;20053;-87
2022/03/18 05:23:17;;;;;;;21.02;11.18;;;4.20;99.90;;;;;;4995870;28;20053;-87
2022/03/18 05:25:43;;;;;;;21.23;10.45;;;3.60;99.90;;;;;;5012444;28;20450;-87
2022/03/18 05:28:12;;;;;;;18.48;10.05;;;4.10;99.90;;;;;;4992437;28;20088;-87
2022/03/18 05:30:47;;;;;;;25.48;11.32;;;3.50;99.90;;;;;;4995083;28;20045;-87
2022/03/18 05:33:12;;;;;;;22.05;10.25;;;2.60;99.90;;;;;;4995616;28;20049;-87
2022/03/18 05:35:38;;;;;;;21.00;10.40;;;4.30;99.90;;;;;;4996603;28;20136;-86
2022/03/18 05:38:15;;;;;;;20.75;10.18;;;3.30;99.90;;;;;;4995761;28;20037;-87
2022/03/18 05:40:50;;;;;;;22.00;10.63;;;3.30;99.90;;;;;;4996962;28;20077;-87
2022/03/18 05:43:22;;;;;;;26.45;11.15;;;3.90;99.90;;;;;;4995679;28;20041;-87
2022/03/18 05:46:03;;;;;;;23.77;12.13;;;2.90;99.90;;;;;;4996148;28;20053;-87
2022/03/18 05:48:35;;;;;;;27.42;12.65;;;3.20;99.90;;;;;;4996623;28;20822;-87
2022/03/18 05:51:15;;;;;;;22.08;10.82;;;3.20;99.90;;;;;;4996381;28;20038;-87
2022/03/18 05:53:59;;;;;;;28.67;12.50;;;2.70;99.90;;;;;;4997210;28;20109;-89
2022/03/18 05:59:55;;;;;;;23.40;12.70;;;3.10;99.90;;;;;;5029811;28;20060;-89
2022/03/18 06:03:13;;;;;;;22.38;11.55;;;3.10;99.90;;;;;;4952676;28;20050;-87
2022/03/18 06:06:30;;;;;;;33.35;12.35;;;3.10;99.90;;;;;;4976287;28;20577;-87
2022/03/18 06:12:21;;;;;;;24.98;12.70;;;3.80;99.90;;;;;;4991073;28;20405;-87
2022/03/18 06:14:53;;;;;;;27.27;12.38;;;3.10;99.90;;;;;;4992335;28;20482;-85
2022/03/18 06:17:24;;;;;;;19.63;11.68;;;3.10;99.90;;;;;;4975544;28;20052;-86
2022/03/18 06:19:50;;;;;;;27.42;12.73;;;2.60;99.90;;;;;;4975826;28;20493;-85
2022/03/18 06:22:25;;;;;;;26.33;13.00;;;2.90;99.90;;;;;;4975764;28;20046;-86
2022/03/18 06:25:00;;;;;;;25.85;15.18;;;2.70;99.90;;;;;;4992487;28;20046;-86
2022/03/18 06:27:32;;;;;;;26.60;13.55;;;4.00;99.90;;;;;;4990153;28;20038;-86
2022/03/18 06:30:03;;;;;;;25.90;14.00;;;2.90;99.90;;;;;;4976241;28;20143;-85
2022/03/18 06:32:38;;;;;;;22.83;13.75;;;2.90;99.90;;;;;;4975999;28;20049;-86
2022/03/18 06:35:04;;;;;;;32.80;14.43;;;3.50;99.90;;;;;;4975023;28;20141;-86
2022/03/18 06:37:40;;;;;;;30.65;14.68;;;3.10;99.90;;;;;;4975777;28;20086;-86
2022/03/18 06:40:23;;;;;;;43.70;14.90;;;3.00;99.90;;;;;;4975130;28;20049;-87
2022/03/18 06:42:55;;;;;;;19.52;13.75;;;3.10;99.90;;;;;;4975599;28;20049;-87
2022/03/18 06:45:41;;;;;;;25.25;14.07;;;3.70;99.90;;;;;;4971905;28;20050;-88
2022/03/18 06:48:18;;;;;;;34.95;15.73;;;3.20;99.90;;;;;;4972309;28;20505;-87
2022/03/18 06:51:07;;;;;;;29.23;15.02;;;4.30;99.90;;;;;;4972957;28;20412;-87
2022/03/18 06:53:42;;;;;;;23.23;13.88;;;3.20;99.90;;;;;;4975274;28;20047;-87
2022/03/18 06:56:09;;;;;;;29.38;15.75;;;3.90;99.90;;;;;;4973398;28;20046;-87
2022/03/18 06:59:12;;;;;;;26.15;14.45;;;3.30;99.90;;;;;;4975804;28;20049;-87
2022/03/18 07:01:53;;;;;;;30.00;14.85;;;3.30;99.90;;;;;;4995614;28;20084;-86
2022/03/18 07:05:02;;;;;;;27.65;16.05;;;3.50;99.90;;;;;;4993410;28;20168;-86
2022/03/18 07:07:50;;;;;;;27.25;16.60;;;3.50;99.90;;;;;;4992102;28;20501;-87
2022/03/18 07:10:38;;;;;;;34.28;17.42;;;3.60;99.90;;;;;;4993281;28;20119;-87
2022/03/18 07:13:22;;;;;;;31.70;17.90;;;4.50;99.90;;;;;;4994431;28;20053;-87
2022/03/18 07:15:51;;;;;;;29.70;18.05;;;3.80;99.90;;;;;;4991114;28;20050;-87
2022/03/18 07:18:20;;;;;;;33.42;19.00;;;4.80;99.90;;;;;;5010761;28;20040;-87
2022/03/18 07:20:45;;;;;;;37.47;19.48;;;4.80;99.90;;;;;;4992646;28;20098;-88
2022/03/18 07:23:22;;;;;;;34.95;19.63;;;4.10;99.90;;;;;;5009779;28;20041;-87
2022/03/18 07:25:57;;;;;;;35.25;18.55;;;4.90;99.90;;;;;;5009186;28;20049;-87
2022/03/18 07:28:42;;;;;;;33.45;18.17;;;5.10;99.90;;;;;;4994444;28;20081;-88
2022/03/18 07:31:18;;;;;;;36.33;19.55;;;4.80;99.90;;;;;;5011054;28;20049;-85
2022/03/18 07:33:56;;;;;;;35.60;17.50;;;4.50;99.90;;;;;;4993177;28;20401;-87
2022/03/18 07:36:32;;;;;;;;;;;;;;;;;;;;;
2022/03/18 07:39:22;;;;;;;37.03;16.73;;;6.20;99.90;;;;;;5009231;28;20111;-87
2022/03/18 07:41:48;;;;;;;31.70;16.27;;;6.70;99.90;;;;;;4993071;28;20053;-86
2022/03/18 07:44:14;;;;;;;33.13;16.23;;;5.70;99.90;;;;;;4992365;28;20132;-87
2022/03/18 07:46:46;;;;;;;39.15;16.20;;;6.60;99.90;;;;;;4994327;28;20045;-87
2022/03/18 07:49:27;;;;;;;34.42;16.08;;;6.10;99.90;;;;;;4990722;28;20057;-86
2022/03/18 07:51:52;;;;;;;36.47;15.45;;;5.50;99.90;;;;;;5010076;28;20050;-87
2022/03/18 07:54:18;;;;;;;36.20;14.60;;;7.20;99.90;;;;;;5009715;28;20037;-84
2022/03/18 07:56:47;;;;;;;34.40;14.80;;;7.30;99.90;;;;;;5009131;28;20053;-85
2022/03/18 07:59:13;;;;;;;32.00;13.43;;;5.80;99.90;;;;;;4991795;28;20037;-85
2022/03/18 08:01:59;;;;;;;35.88;13.65;;;7.30;99.90;;;;;;4983878;28;20049;-87
2022/03/18 08:04:28;;;;;;;34.33;13.68;;;6.00;99.90;;;;;;4982094;28;20670;-87
2022/03/18 08:07:03;;;;;;;28.73;13.98;;;6.60;99.90;;;;;;4975311;28;20049;-88
2022/03/18 08:09:32;;;;;;;34.38;13.30;;;7.80;99.90;;;;;;4989853;28;20416;-86
2022/03/18 08:11:58;;;;;;;32.08;13.05;;;7.80;99.90;;;;;;5009517;28;20053;-86
2022/03/18 08:14:36;;;;;;;41.95;13.10;;;7.40;99.90;;;;;;4988175;28;20037;-86
2022/03/18 08:17:08;;;;;;;30.98;12.40;;;8.60;99.90;;;;;;4993651;28;20139;-87
2022/03/18 08:19:46;;;;;;;36.63;11.55;;;7.50;99.90;;;;;;5008764;28;21373;-85
2022/03/18 08:22:12;;;;;;;37.03;12.65;;;7.60;99.90;;;;;;4992504;28;20382;-85
2022/03/18 08:24:48;;;;;;;33.90;11.80;;;8.60;99.90;;;;;;5010266;28;20079;-85
2022/03/18 08:27:14;;;;;;;35.10;12.32;;;7.80;99.90;;;;;;4988004;28;20085;-86
2022/03/18 08:29:57;;;;;;;31.25;12.70;;;7.90;99.90;;;;;;5013853;28;20080;-85
2022/03/18 08:32:30;;;;;;;24.50;10.85;;;8.50;99.90;;;;;;4995198;28;20128;-86
2022/03/18 08:35:07;;;;;;;27.58;10.95;;;9.10;99.90;;;;;;4990735;28;20049;-85
2022/03/18 08:40:22;;;;;;;38.00;11.85;;;8.20;99.90;;;;;;5012427;28;20072;-84
2022/03/18 08:42:48;;;;;;;34.03;11.48;;;8.60;99.90;;;;;;4996285;28;20041;-85
2022/03/18 08:45:13;;;;;;;31.10;9.98;;;8.30;99.90;;;;;;5013157;28;20081;-85
2022/03/18 08:47:39;;;;;;;27.60;10.57;;;8.70;99.90;;;;;;5012494;28;20477;-86
2022/03/18 08:50:22;;;;;;;34.63;11.43;;;9.40;99.90;;;;;;5013059;28;20096;-85
2022/03/18 08:52:57;;;;;;;29.30;10.30;;;9.40;99.90;;;;;;5013169;28;20051;-86
2022/03/18 08:55:24;;;;;;;32.72;10.52;;;8.50;99.90;;;;;;5012235;28;20038;-85
2022/03/18 08:57:58;;;;;;;27.48;11.27;;;9.60;99.90;;;;;;4996261;28;20041;-84
2022/03/18 09:00:24;;;;;;;26.02;9.95;;;8.60;99.90;;;;;;4995999;28;20120;-85
2022/03/18 09:02:50;;;;;;;31.55;11.68;;;9.60;99.90;;;;;;4995426;28;20623;-86
2022/03/18 09:05:19;;;;;;;29.95;11.52;;;8.70;99.90;;;;;;4995967;28;20087;-85
2022/03/18 09:07:46;;;;;;;31.80;12.32;;;8.80;99.90;;;;;;5012140;28;20467;-84
2022/03/18 09:10:20;;;;;;;27.65;11.75;;;8.90;99.90;;;;;;4996152;28;20179;-84
2022/03/18 09:13:00;;;;;;;26.35;10.82;;;9.00;99.90;;;;;;5011961;28;20129;-85
2022/03/18 09:15:42;;;;;;;33.72;12.13;;;9.00;99.90;;;;;;5011814;28;20554;-85
2022/03/18 09:18:08;;;;;;;30.75;12.50;;;10.00;99.90;;;;;;5012835;28;20071;-85
2022/03/18 09:20:38;;;;;;;35.45;13.05;;;9.80;99.90;;;;;;5013091;28;20493;-85
2022/03/18 09:23:14;;;;;;;29.83;12.68;;;9.90;99.90;;;;;;5012148;28;20075;-84
2022/03/18 09:25:40;;;;;;;26.70;11.68;;;10.30;99.90;;;;;;4995754;28;20052;-84
2022/03/18 09:28:06;;;;;;;26.08;10.85;;;10.40;99.90;;;;;;4995512;28;20045;-84
2022/03/18 09:30:44;;;;;;;31.83;11.05;;;9.40;99.90;;;;;;4995606;28;20095;-84
2022/03/18 09:33:10;;;;;;;23.70;10.70;;;9.90;99.90;;;;;;5012000;28;20046;-84
2022/03/18 09:35:37;;;;;;;19.92;9.75;;;10.50;99.90;;;;;;5012532;28;20066;-84
2022/03/18 09:38:09;;;;;;;23.95;9.65;;;10.60;99.90;;;;;;4994543;28;20456;-84
2022/03/18 09:40:35;;;;;;;25.33;10.00;;;9.70;99.90;;;;;;4995443;28;20481;-84
2022/03/18 09:43:04;;;;;;;26.88;9.50;;;9.80;99.90;;;;;;5010500;28;20095;-84
2022/03/18 09:45:32;;;;;;;27.63;9.75;;;9.90;99.90;;;;;;4994978;28;20045;-84
2022/03/18 09:47:59;;;;;;;30.02;10.10;;;10.40;99.90;;;;;;5011751;28;20041;-84
2022/03/18 09:50:31;;;;;;;28.13;9.38;;;11.10;99.90;;;;;;4994774;28;20045;-84
2022/03/18 09:52:57;;;;;;;30.05;8.90;;;11.20;99.90;;;;;;5012378;28;20081;-84
2022/03/18 09:55:34;;;;;;;30.27;8.40;;;11.20;99.90;;;;;;5011712;28;20523;-84
2022/03/18 09:58:11;;;;;;;29.25;8.98;;;10.40;99.90;;;;;;4984567;28;20042;-85
2022/03/18 10:00:50;;;;;;;30.58;9.98;;;10.50;99.90;;;;;;5006495;28;20041;-84
2022/03/18 10:03:18;;;;;;;26.35;8.43;;;11.50;99.90;;;;;;5009625;28;20058;-84
2022/03/18 10:05:58;;;;;;;24.90;9.20;;;10.60;99.90;;;;;;4990565;28;20085;-82
2022/03/18 10:08:35;;;;;;;25.40;8.02;;;10.60;99.90;;;;;;4991733;28;20050;-82
2022/03/18 10:11:20;;;;;;;19.90;8.10;;;10.90;99.90;;;;;;5022640;28;20477;-83
2022/03/18 10:14:07;;;;;;;29.60;8.85;;;10.80;99.90;;;;;;4975564;28;20052;-82
2022/03/18 10:16:51;;;;;;;24.63;7.75;;;10.90;99.90;;;;;;5001472;28;20053;-82
2022/03/18 10:19:34;;;;;;;20.75;7.50;;;10.90;99.90;;;;;;5010245;28;20049;-82
2022/03/18 10:22:02;;;;;;;25.52;8.88;;;11.00;99.90;;;;;;5008913;28;20079;-86
2022/03/18 10:24:37;;;;;;;22.10;7.82;;;11.00;99.90;;;;;;4995033;28;20084;-84
2022/03/18 10:27:20;;;;;;;21.55;8.25;;;11.10;99.90;;;;;;5008971;28;20125;-84
2022/03/18 10:29:49;;;;;;;29.70;8.10;;;11.10;99.90;;;;;;5010901;28;20434;-80
2022/03/18 10:32:16;;;;;;;22.55;8.75;;;12.00;99.90;;;;;;4991472;28;20041;-79
2022/03/18 10:37:47;;;;;;;23.00;8.50;;;11.50;99.90;;;;;;5009256;28;20143;-81
2022/03/18 10:40:14;;;;;;;25.40;8.60;;;11.40;99.90;;;;;;5006047;28;20517;-82
2022/03/18 10:42:41;;;;;;;26.00;9.02;;;12.20;99.90;;;;;;5009729;28;20467;-81
2022/03/18 10:45:08;;;;;;;25.55;8.70;;;11.50;99.90;;;;;;4993892;28;20488;-81
2022/03/18 10:47:40;;;;;;;24.75;7.97;;;11.50;99.90;;;;;;4993035;28;20045;-82
2022/03/18 10:50:10;;;;;;;27.77;9.80;;;11.60;99.90;;;;;;4993615;28;20045;-81
2022/03/18 10:52:59;;;;;;;25.80;9.07;;;11.80;99.90;;;;;;5008095;28;20374;-80
2022/03/18 10:55:26;;;;;;;28.85;8.45;;;11.70;99.90;;;;;;5009780;28;20055;-80
2022/03/18 10:57:55;;;;;;;26.17;8.55;;;11.80;99.90;;;;;;4990038;28;20073;-80
2022/03/18 11:00:25;;;;;;;23.70;7.75;;;11.90;99.90;;;;;;4992569;28;20056;-81
2022/03/18 11:02:53;;;;;;;26.80;8.02;;;11.90;99.90;;;;;;5010135;28;20045;-81
2022/03/18 11:05:21;;;;;;;27.17;7.68;;;12.60;99.90;;;;;;5009897;28;20501;-82
2022/03/18 11:07:47;;;;;;;23.25;7.60;;;12.00;99.90;;;;;;4994054;28;20040;-83
2022/03/18 11:13:02;;;;;;;22.08;6.78;;;12.00;99.90;;;;;;5007634;28;20055;-80
2022/03/18 11:15:30;;;;;;;24.52;7.22;;;12.10;99.90;;;;;;5009594;28;20528;-81
2022/03/18 11:17:57;;;;;;;29.95;7.15;;;12.20;99.90;;;;;;4981136;28;20070;-82
2022/03/18 11:20:27;;;;;;;21.38;6.78;;;12.20;99.90;;;;;;4994543;28;20045;-84
2022/03/18 11:22:53;;;;;;;31.70;7.95;;;12.30;99.90;;;;;;5010322;28;20048;-83
2022/03/18 11:25:20;;;;;;;20.48;6.22;;;12.40;99.90;;;;;;4996664;28;20052;-93
2022/03/18 11:27:54;;;;;;;25.13;6.97;;;12.40;99.90;;;;;;4993135;28;20079;-88
2022/03/18 11:30:34;;;;;;;19.05;7.10;;;12.30;99.90;;;;;;4992122;28;20052;-88
2022/03/18 11:33:32;;;;;;;25.77;7.57;;;13.10;99.90;;;;;;4986672;28;20551;-89
2022/03/18 11:36:17;;;;;;;20.98;7.25;;;12.10;99.90;;;;;;5009454;28;20038;-88
2022/03/18 11:39:06;;;;;;;17.38;5.95;;;12.60;99.90;;;;;;5011768;28;20081;-89
2022/03/18 11:41:46;;;;;;;22.98;6.10;;;12.70;99.90;;;;;;4994703;28;20046;-88
2022/03/18 11:44:56;;;;;;;21.65;6.80;;;13.50;99.90;;;;;;4990767;28;20042;-89
2022/03/18 11:47:39;;;;;;;24.45;6.45;;;13.00;99.90;;;;;;4993023;28;20149;-90
2022/03/18 11:50:42;;;;;;;19.40;6.20;;;13.20;99.90;;;;;;4995051;28;20049;-88
2022/03/18 11:53:12;;;;;;;23.23;6.93;;;13.20;99.90;;;;;;4987130;28;20238;-88
2022/03/18 11:55:38;;;;;;;19.90;6.25;;;13.30;99.90;;;;;;4994784;28;20103;-88
2022/03/18 11:58:32;;;;;;;20.35;6.35;;;13.50;99.90;;;;;;4994796;28;20099;-87
2022/03/18 12:01:01;;;;;;;19.30;6.90;;;13.40;99.90;;;;;;4995513;28;20137;-91
2022/03/18 12:03:38;;;;;;;29.17;7.30;;;13.50;99.90;;;;;;4996370;28;20073;-90
2022/03/18 12:06:04;;;;;;;20.42;6.45;;;13.40;99.90;;;;;;5007024;28;20493;-89
2022/03/18 12:08:55;;;;;;;27.38;7.95;;;14.00;99.90;;;;;;4999797;28;20631;-88
2022/03/18 12:11:27;;;;;;;25.73;7.20;;;13.60;99.90;;;;;;4998458;28;20056;-88
2022/03/18 12:14:08;;;;;;;24.05;6.75;;;13.60;99.90;;;;;;5009818;28;20045;-86
2022/03/18 12:16:34;;;;;;;20.55;6.72;;;14.00;99.90;;;;;;4998018;28;20049;-83
2022/03/18 12:19:08;;;;;;;24.20;6.85;;;13.70;99.90;;;;;;4992367;28;20130;-82
2022/03/18 12:21:37;;;;;;;22.52;6.25;;;13.80;99.90;;;;;;5012838;28;20050;-83
2022/03/18 12:24:06;;;;;;;21.00;5.63;;;13.90;99.90;;;;;;5011897;28;20092;-83
2022/03/18 12:26:34;;;;;;;22.95;5.95;;;13.90;99.90;;;;;;5011691;28;20049;-83
2022/03/18 12:28:59;;;;;;;18.30;6.10;;;13.80;99.90;;;;;;5014488;28;20048;-94
2022/03/18 12:31:25;;;;;;;26.00;6.32;;;13.80;99.90;;;;;;5014759;28;20045;-89
2022/03/18 12:33:57;;;;;;;25.10;5.95;;;14.30;99.90;;;;;;4977221;28;20065;-85
2022/03/18 12:36:25;;;;;;;20.67;6.00;;;14.10;99.90;;;;;;4981441;28;20103;-84
2022/03/18 12:39:04;;;;;;;27.17;6.25;;;13.70;99.90;;;;;;4988826;28;20048;-84
2022/03/18 12:41:30;;;;;;;29.40;6.00;;;13.70;99.90;;;;;;5008098;28;20045;-85
2022/03/18 12:43:56;;;;;;;27.20;5.97;;;13.60;99.90;;;;;;5009788;28;20042;-84
2022/03/18 12:46:21;;;;;;;21.58;6.18;;;13.90;99.90;;;;;;4991458;28;20049;-84
2022/03/18 12:48:47;;;;;;;23.75;5.55;;;14.10;99.90;;;;;;4981511;28;20045;-84
2022/03/18 12:51:13;;;;;;;17.25;4.80;;;13.40;99.90;;;;;;5012651;28;20042;-85
2022/03/18 12:53:51;;;;;;;25.92;5.47;;;13.60;99.90;;;;;;4994713;28;20107;-83
2022/03/18 12:56:18;;;;;;;28.00;5.63;;;13.60;99.90;;;;;;5011327;28;20141;-84
2022/03/18 12:58:45;;;;;;;25.77;5.28;;;13.40;99.90;;;;;;4996305;28;20658;-84
2022/03/18 13:01:12;;;;;;;24.80;5.63;;;13.30;99.90;;;;;;5011498;28;20176;-85
2022/03/18 13:03:47;;;;;;;18.48;4.90;;;13.60;99.90;;;;;;4996381;28;20876;-85
2022/03/18 13:06:20;;;;;;;28.05;5.65;;;13.30;99.90;;;;;;4991795;28;20473;-86
2022/03/18 13:08:47;;;;;;;25.08;4.85;;;13.40;99.90;;;;;;4999016;28;20049;-89
2022/03/18 13:11:14;;;;;;;20.33;4.88;;;13.50;99.90;;;;;;5011187;28;20497;-92
2022/03/18 13:13:46;;;;;;;24.70;5.00;;;13.30;99.90;;;;;;4991213;28;20215;-84
2022/03/18 13:16:13;;;;;;;23.52;5.28;;;13.30;99.90;;;;;;5011358;28;20046;-85
2022/03/18 13:18:47;;;;;;;21.38;4.88;;;13.30;99.90;;;;;;4996871;28;20049;-85
2022/03/18 13:21:13;;;;;;;18.92;4.38;;;13.60;99.90;;;;;;4990898;28;20525;-90
2022/03/18 13:23:40;;;;;;;29.10;5.05;;;13.30;99.90;;;;;;4987794;28;20151;-84
2022/03/18 13:26:09;;;;;;;26.30;5.53;;;13.20;99.90;;;;;;4998242;28;20041;-86
2022/03/18 13:28:35;;;;;;;25.35;5.35;;;13.20;99.90;;;;;;5012623;28;20424;-84
2022/03/18 13:33:48;;;;;;;28.08;6.28;;;13.20;99.90;;;;;;5012389;28;20092;-84
2022/03/18 13:36:28;;;;;;;25.25;5.75;;;13.30;99.90;;;;;;5006472;28;20049;-83
2022/03/18 13:38:55;;;;;;;21.75;5.63;;;13.30;99.90;;;;;;4995906;28;20401;-88
2022/03/18 13:41:22;;;;;;;23.85;6.20;;;13.30;99.90;;;;;;4994987;28;20041;-84
2022/03/18 13:43:56;;;;;;;29.25;5.82;;;13.80;99.90;;;;;;5010835;28;20033;-84
2022/03/18 13:46:27;;;;;;;23.27;5.57;;;13.20;99.90;;;;;;5011910;28;20493;-84
2022/03/18 13:49:07;;;;;;;28.90;6.72;;;13.30;99.90;;;;;;5009969;28;20045;-84